Time;durP1;ratioP1;P1;durP2;ratioP2;P2;SDS_P1;SDS_P2;PMS_P1;PMS_P2;Temp;Humidity;BMP_temperature;BMP_pressure;BME280_temperature;BME280_humidity;BME280_pressure;Samples;Min_cycle;Max_cycle;Signal;HPM_P1;HPM_P2
2022/07/28 06:00:15;;;;;;;4.90;3.50;;;;;;;;;;6246286;22;20082;-84
2022/07/28 06:02:46;;;;;;;3.70;3.40;;;;;;;;;;6246793;23;20015;-82
2022/07/28 06:05:12;;;;;;;3.88;3.58;;;;;;;;;;6246550;23;20078;-85
2022/07/28 06:07:38;;;;;;;3.92;3.53;;;;;;;;;;6236800;23;20072;-82
2022/07/28 07:41:53;;;;;;;3.97;3.67;;;;;;;;;;6267216;22;20027;-86
2022/07/28 07:44:18;;;;;;;3.95;3.65;;;;;;;;;;6248037;23;20012;-79
2022/07/28 07:46:43;;;;;;;4.00;3.60;;;;;;;;;;6247992;23;20079;-80
2022/07/28 07:49:09;;;;;;;3.85;3.22;;;;;;;;;;6246225;23;20091;-80
2022/07/28 07:51:34;;;;;;;4.57;3.78;;;;;;;;;;6247949;22;20373;-82
2022/07/28 07:54:00;;;;;;;4.30;3.50;;;;;;;;;;6248508;22;20011;-81
2022/07/28 07:56:25;;;;;;;4.03;3.72;;;;;;;;;;6243108;22;20035;-88
2022/07/28 07:58:52;;;;;;;4.72;3.75;;;;;;;;;;6246941;22;20074;-88
2022/07/28 08:01:17;;;;;;;4.93;3.78;;;;;;;;;;6247242;22;20004;-82
2022/07/28 08:03:43;;;;;;;5.45;3.90;;;;;;;;;;6247299;22;20058;-83
2022/07/28 08:06:09;;;;;;;4.43;4.03;;;;;;;;;;6247555;22;20011;-89
2022/07/28 08:08:34;;;;;;;4.85;3.78;;;;;;;;;;6247254;22;20024;-82
2022/07/28 08:11:00;;;;;;;3.65;3.35;;;;;;;;;;6247773;22;20000;-88
2022/07/28 08:13:25;;;;;;;4.20;3.72;;;;;;;;;;6246880;22;20008;-89
2022/07/28 08:15:51;;;;;;;4.05;3.65;;;;;;;;;;6246837;23;20015;-88
2022/07/28 08:18:16;;;;;;;4.82;3.70;;;;;;;;;;6246437;23;20273;-88
2022/07/28 08:20:41;;;;;;;4.28;3.58;;;;;;;;;;6248203;22;20047;-90
2022/07/28 08:23:07;;;;;;;4.38;3.55;;;;;;;;;;6248038;22;20320;-89
2022/07/28 08:25:35;;;;;;;3.97;3.65;;;;;;;;;;6248854;23;20000;-88
2022/07/28 08:28:00;;;;;;;5.03;4.53;;;;;;;;;;6248080;22;20004;-82
2022/07/28 08:30:26;;;;;;;4.10;3.70;;;;;;;;;;6246765;23;20335;-90
2022/07/28 08:32:51;;;;;;;4.40;3.75;;;;;;;;;;6248723;22;20419;-84
2022/07/28 08:35:17;;;;;;;3.97;3.63;;;;;;;;;;6248949;22;20323;-83
2022/07/28 08:37:42;;;;;;;4.10;3.72;;;;;;;;;;6248750;22;20444;-81
2022/07/28 08:40:13;;;;;;;3.90;3.60;;;;;;;;;;6248695;22;20000;-87
2022/07/28 08:43:01;;;;;;;3.88;3.53;;;;;;;;;;6247683;22;20070;-88
2022/07/28 08:45:29;;;;;;;4.63;4.20;;;;;;;;;;6247279;23;20004;-81
2022/07/28 08:47:56;;;;;;;4.00;3.60;;;;;;;;;;6247411;22;20004;-84
2022/07/28 08:50:23;;;;;;;4.50;4.10;;;;;;;;;;6247717;22;20008;-81
2022/07/28 09:10:45;;;;;;;4.55;3.90;;;;;;;;;;6311500;22;20010;-82
2022/07/28 09:13:11;;;;;;;4.32;3.92;;;;;;;;;;6339915;22;20013;-82
2022/07/28 09:15:36;;;;;;;6.30;4.15;;;;;;;;;;6340277;22;20356;-84
2022/07/28 09:18:02;;;;;;;5.03;3.53;;;;;;;;;;6340007;22;20085;-85
2022/07/28 09:20:28;;;;;;;5.00;3.60;;;;;;;;;;6339905;22;20078;-83
2022/07/28 09:22:59;;;;;;;5.43;3.92;;;;;;;;;;6339727;22;20045;-82
2022/07/28 09:25:26;;;;;;;4.43;4.03;;;;;;;;;;6340038;22;20002;-85
2022/07/28 09:27:52;;;;;;;4.72;4.32;;;;;;;;;;6339629;22;20055;-84
2022/07/28 09:30:40;;;;;;;6.55;3.83;;;;;;;;;;6339708;22;20026;-83
2022/07/28 09:33:24;;;;;;;4.00;3.70;;;;;;;;;;6339754;22;20002;-83
2022/07/28 09:35:52;;;;;;;3.70;3.40;;;;;;;;;;6339908;22;20002;-84
2022/07/28 09:38:19;;;;;;;3.80;3.40;;;;;;;;;;6339726;22;19995;-85
2022/07/28 09:41:02;;;;;;;5.72;4.00;;;;;;;;;;6339759;22;20007;-85
2022/07/28 09:43:38;;;;;;;4.28;3.75;;;;;;;;;;6339615;22;20081;-85
2022/07/28 09:46:18;;;;;;;4.55;3.83;;;;;;;;;;6339534;22;20385;-84
2022/07/28 09:48:49;;;;;;;4.30;4.00;;;;;;;;;;6339683;22;19998;-84
2022/07/28 09:51:35;;;;;;;3.90;3.45;;;;;;;;;;6339856;22;20441;-87
2022/07/28 09:54:12;;;;;;;4.38;3.92;;;;;;;;;;6339240;22;20010;-85
2022/07/28 09:56:39;;;;;;;4.25;3.95;;;;;;;;;;6340252;22;19998;-93
2022/07/28 09:59:04;;;;;;;5.10;4.13;;;;;;;;;;6312669;22;19995;-85
2022/07/28 10:01:30;;;;;;;4.03;3.72;;;;;;;;;;6340465;22;20329;-94
2022/07/28 10:03:57;;;;;;;4.07;3.78;;;;;;;;;;6341129;22;20334;-83
2022/07/28 10:06:25;;;;;;;3.83;3.47;;;;;;;;;;6340838;22;20037;-83
2022/07/28 10:08:52;;;;;;;5.25;4.28;;;;;;;;;;6341739;22;20002;-83
2022/07/28 10:11:23;;;;;;;5.03;4.32;;;;;;;;;;6315190;22;20029;-83
2022/07/28 10:13:59;;;;;;;4.78;4.30;;;;;;;;;;6343614;22;19999;-93
2022/07/28 10:16:27;;;;;;;4.50;4.10;;;;;;;;;;6342035;22;20085;-83
2022/07/28 10:18:54;;;;;;;5.28;4.38;;;;;;;;;;6340160;22;20068;-82
2022/07/28 10:21:22;;;;;;;4.68;4.07;;;;;;;;;;6339633;22;19998;-81
2022/07/28 10:23:52;;;;;;;4.40;4.00;;;;;;;;;;6340173;22;20085;-86
2022/07/28 10:26:20;;;;;;;5.05;4.45;;;;;;;;;;6339783;22;19999;-82
2022/07/28 10:28:49;;;;;;;6.15;4.45;;;;;;;;;;6340358;22;20078;-94
2022/07/28 10:31:24;;;;;;;5.45;4.03;;;;;;;;;;6311576;22;20010;-88
2022/07/28 10:33:52;;;;;;;4.07;3.70;;;;;;;;;;6339570;22;20081;-81
2022/07/28 10:36:22;;;;;;;4.32;4.00;;;;;;;;;;6339344;22;20082;-83
2022/07/28 10:38:50;;;;;;;4.38;4.00;;;;;;;;;;6339300;22;19999;-82
2022/07/28 10:41:20;;;;;;;5.88;4.07;;;;;;;;;;6339702;22;20045;-85
2022/07/28 10:43:47;;;;;;;4.47;4.07;;;;;;;;;;6339050;22;20098;-84
2022/07/28 10:46:12;;;;;;;4.00;3.65;;;;;;;;;;6339338;22;20048;-85
2022/07/28 10:48:39;;;;;;;5.82;3.90;;;;;;;;;;6312270;22;20007;-92
2022/07/28 10:51:04;;;;;;;5.03;4.25;;;;;;;;;;6339834;22;20124;-83
2022/07/28 10:53:50;;;;;;;4.30;3.88;;;;;;;;;;6339734;22;19998;-88
2022/07/28 10:56:24;;;;;;;4.22;3.90;;;;;;;;;;6339540;22;20010;-87
2022/07/28 10:58:54;;;;;;;5.13;3.90;;;;;;;;;;6339326;22;19998;-83
2022/07/28 11:01:36;;;;;;;4.45;3.92;;;;;;;;;;6339348;22;20005;-83
2022/07/28 11:04:02;;;;;;;4.30;3.90;;;;;;;;;;6339580;22;20045;-83
2022/07/28 11:06:30;;;;;;;4.10;3.80;;;;;;;;;;6339124;22;19999;-83
2022/07/28 11:09:20;;;;;;;4.40;4.00;;;;;;;;;;6311743;22;20019;-83
2022/07/28 11:11:45;;;;;;;4.03;3.50;;;;;;;;;;6339480;22;20007;-84
2022/07/28 11:14:26;;;;;;;4.25;3.95;;;;;;;;;;6339216;22;20017;-85
2022/07/28 11:17:04;;;;;;;4.25;3.85;;;;;;;;;;6339133;22;19995;-83
2022/07/28 11:19:30;;;;;;;4.65;4.25;;;;;;;;;;6339285;22;19999;-92
2022/07/28 11:22:17;;;;;;;4.55;4.15;;;;;;;;;;6339030;22;20441;-86
2022/07/28 11:24:59;;;;;;;5.40;4.20;;;;;;;;;;6339496;22;20033;-84
2022/07/28 11:27:48;;;;;;;4.90;4.28;;;;;;;;;;6339234;22;20003;-86
2022/07/28 11:30:34;;;;;;;4.97;4.57;;;;;;;;;;6339594;22;20003;-89
2022/07/28 11:33:00;;;;;;;5.38;4.53;;;;;;;;;;6339223;22;19999;-93
2022/07/28 11:35:49;;;;;;;4.97;4.45;;;;;;;;;;6311152;22;20022;-80
2022/07/28 11:38:15;;;;;;;4.60;4.25;;;;;;;;;;6338400;22;20014;-78
2022/07/28 11:40:40;;;;;;;6.38;5.07;;;;;;;;;;6338835;22;19994;-86
2022/07/28 11:43:25;;;;;;;5.53;4.80;;;;;;;;;;6339740;22;20030;-85
2022/07/28 11:46:00;;;;;;;5.22;4.75;;;;;;;;;;6340798;22;20007;-80
2022/07/28 11:48:26;;;;;;;4.72;4.28;;;;;;;;;;6340706;22;20003;-80
2022/07/28 11:51:04;;;;;;;6.63;5.22;;;;;;;;;;6340423;22;20006;-79
2022/07/28 11:53:40;;;;;;;5.95;5.45;;;;;;;;;;6340807;22;19999;-82
2022/07/28 11:56:08;;;;;;;6.95;5.20;;;;;;;;;;6340534;22;20003;-83
2022/07/28 11:58:34;;;;;;;7.63;5.43;;;;;;;;;;6340693;22;20007;-82
2022/07/28 12:01:09;;;;;;;6.97;5.00;;;;;;;;;;6340400;22;20006;-81
2022/07/28 12:03:36;;;;;;;5.78;5.22;;;;;;;;;;6340412;22;20418;-80
2022/07/28 12:06:02;;;;;;;6.10;5.28;;;;;;;;;;6340076;22;19995;-81
2022/07/28 12:08:27;;;;;;;5.72;5.22;;;;;;;;;;6340760;22;20090;-79
2022/07/28 12:10:54;;;;;;;5.82;4.70;;;;;;;;;;6339880;22;20383;-79
2022/07/28 12:13:25;;;;;;;5.35;4.85;;;;;;;;;;6340133;22;20461;-82
2022/07/28 12:15:51;;;;;;;6.18;5.20;;;;;;;;;;6340440;22;20025;-81
2022/07/28 12:18:17;;;;;;;7.35;4.82;;;;;;;;;;6340244;22;19999;-80
2022/07/28 12:20:46;;;;;;;5.22;4.82;;;;;;;;;;6340343;22;20002;-82
2022/07/28 12:23:12;;;;;;;;;;;;;;;;;;6340710;22;20003;-81
2022/07/28 12:25:45;;;;;;;5.93;5.30;;;;;;;;;;6340377;22;19906;-80
2022/07/28 12:28:21;;;;;;;7.95;5.30;;;;;;;;;;6340178;22;19999;-79
2022/07/28 12:30:50;;;;;;;7.55;4.88;;;;;;;;;;6340165;22;20086;-81
2022/07/28 12:33:21;;;;;;;;;;;;;;;;;;6340665;22;20006;-80
2022/07/28 12:35:50;;;;;;;8.23;4.68;;;;;;;;;;6312539;22;19929;-81
2022/07/28 12:38:16;;;;;;;5.07;4.68;;;;;;;;;;6340108;22;20003;-80
2022/07/28 12:40:42;;;;;;;5.28;4.78;;;;;;;;;;6340157;22;20009;-82
2022/07/28 12:43:08;;;;;;;5.57;5.05;;;;;;;;;;6340237;22;20074;-83
2022/07/28 12:45:43;;;;;;;5.28;4.78;;;;;;;;;;6340083;22;20076;-79
2022/07/28 12:48:09;;;;;;;6.00;5.28;;;;;;;;;;6339974;22;20069;-80
2022/07/28 12:50:37;;;;;;;5.60;5.10;;;;;;;;;;6340160;22;20052;-84
2022/07/28 12:53:09;;;;;;;5.47;5.07;;;;;;;;;;6340110;22;20010;-86
2022/07/28 12:55:35;;;;;;;7.20;5.18;;;;;;;;;;6339719;22;20029;-81
2022/07/28 12:58:02;;;;;;;6.03;5.50;;;;;;;;;;6340833;22;20053;-81
2022/07/28 13:00:30;;;;;;;9.50;5.22;;;;;;;;;;6340087;22;20432;-81
2022/07/28 13:02:58;;;;;;;7.43;4.75;;;;;;;;;;6339936;22;20021;-80
2022/07/28 13:05:30;;;;;;;5.93;5.32;;;;;;;;;;6339949;22;20006;-81
2022/07/28 13:08:01;;;;;;;6.78;5.72;;;;;;;;;;6339877;22;19990;-80
2022/07/28 13:10:26;;;;;;;5.40;4.90;;;;;;;;;;6339842;22;20071;-81
2022/07/28 13:13:06;;;;;;;5.75;5.25;;;;;;;;;;6339796;22;20010;-81
2022/07/28 13:15:32;;;;;;;5.80;5.30;;;;;;;;;;6339828;22;20026;-81
2022/07/28 13:17:59;;;;;;;5.22;4.78;;;;;;;;;;6339969;22;20003;-81
2022/07/28 13:20:25;;;;;;;6.07;5.25;;;;;;;;;;6339821;22;20023;-81
2022/07/28 13:22:52;;;;;;;5.43;4.85;;;;;;;;;;6339573;22;19999;-81
2022/07/28 13:25:19;;;;;;;5.05;4.55;;;;;;;;;;6339850;22;20002;-81
2022/07/28 13:27:44;;;;;;;5.32;4.82;;;;;;;;;;6339922;22;19999;-80
2022/07/28 13:30:10;;;;;;;8.57;5.10;;;;;;;;;;6340007;22;20007;-81
2022/07/28 13:32:36;;;;;;;5.72;5.22;;;;;;;;;;6339735;22;20015;-81
2022/07/28 13:35:03;;;;;;;6.90;5.18;;;;;;;;;;6339900;22;20002;-80
2022/07/28 13:37:28;;;;;;;7.20;5.05;;;;;;;;;;6339567;22;20332;-81
2022/07/28 13:39:54;;;;;;;4.90;4.40;;;;;;;;;;6339627;22;20002;-81
2022/07/28 13:42:19;;;;;;;5.20;4.70;;;;;;;;;;6339592;22;20429;-81
2022/07/28 13:44:44;;;;;;;5.15;4.72;;;;;;;;;;6339865;22;20487;-81
2022/07/28 13:47:10;;;;;;;5.32;4.93;;;;;;;;;;6339523;22;20044;-80
2022/07/28 13:49:38;;;;;;;5.15;4.65;;;;;;;;;;6339589;22;20003;-81
2022/07/28 13:52:06;;;;;;;5.55;4.93;;;;;;;;;;6339286;22;20026;-88
2022/07/28 13:54:32;;;;;;;4.97;4.50;;;;;;;;;;6311537;22;20338;-84
2022/07/28 13:56:57;;;;;;;6.28;4.68;;;;;;;;;;6339682;22;19999;-81
2022/07/28 13:59:23;;;;;;;5.90;5.00;;;;;;;;;;6339521;22;20006;-79
2022/07/28 14:01:49;;;;;;;7.00;5.45;;;;;;;;;;6339505;22;20402;-81
2022/07/28 14:04:14;;;;;;;5.07;4.68;;;;;;;;;;6339200;22;20322;-80
2022/07/28 14:06:40;;;;;;;5.35;4.88;;;;;;;;;;6339067;22;20098;-80
2022/07/28 14:09:05;;;;;;;7.15;5.32;;;;;;;;;;6339750;22;20038;-80
2022/07/28 14:11:31;;;;;;;6.22;4.70;;;;;;;;;;6311996;22;20007;-81
2022/07/28 14:13:56;;;;;;;5.70;4.95;;;;;;;;;;6339357;22;20001;-80
2022/07/28 14:16:23;;;;;;;5.10;4.68;;;;;;;;;;6339139;22;20008;-81
2022/07/28 14:18:49;;;;;;;4.78;4.28;;;;;;;;;;6339386;22;20003;-80
2022/07/28 14:21:14;;;;;;;5.55;5.05;;;;;;;;;;6339259;22;20299;-81
2022/07/28 14:23:40;;;;;;;5.65;5.05;;;;;;;;;;6339615;22;20094;-81
2022/07/28 14:26:06;;;;;;;5.53;4.95;;;;;;;;;;6339359;22;20010;-80
2022/07/28 14:28:32;;;;;;;6.50;5.25;;;;;;;;;;6339387;22;20002;-81
2022/07/28 14:30:57;;;;;;;5.97;5.20;;;;;;;;;;6339546;22;20014;-81
2022/07/28 14:33:23;;;;;;;8.27;5.45;;;;;;;;;;6339401;22;20003;-80
2022/07/28 14:35:48;;;;;;;6.13;4.88;;;;;;;;;;6339227;22;20086;-81
2022/07/28 14:38:14;;;;;;;5.45;4.95;;;;;;;;;;6339571;22;19999;-80
2022/07/28 14:40:40;;;;;;;5.85;5.35;;;;;;;;;;6339383;22;20458;-81
2022/07/28 14:43:05;;;;;;;6.28;5.53;;;;;;;;;;6339431;22;20018;-81
2022/07/28 14:45:32;;;;;;;4.70;4.30;;;;;;;;;;6339488;22;20337;-81
2022/07/28 14:47:57;;;;;;;6.32;4.90;;;;;;;;;;6339475;22;20490;-81
2022/07/28 14:50:24;;;;;;;6.50;5.00;;;;;;;;;;6339236;22;19999;-81
2022/07/28 14:52:49;;;;;;;5.43;4.57;;;;;;;;;;6339325;22;20007;-81
2022/07/28 14:55:15;;;;;;;6.70;5.07;;;;;;;;;;6339381;22;20007;-81
2022/07/28 14:57:41;;;;;;;5.35;4.85;;;;;;;;;;6339157;22;20074;-81
2022/07/28 15:00:12;;;;;;;8.48;4.97;;;;;;;;;;6339466;22;20006;-80
2022/07/28 15:02:38;;;;;;;6.35;5.70;;;;;;;;;;6339175;22;20003;-81
2022/07/28 15:05:04;;;;;;;6.05;5.45;;;;;;;;;;6338980;22;20078;-81
2022/07/28 15:07:29;;;;;;;5.75;5.20;;;;;;;;;;6339445;22;20011;-78
2022/07/28 15:09:55;;;;;;;5.82;4.85;;;;;;;;;;6338783;22;20044;-80
2022/07/28 15:12:20;;;;;;;5.80;5.20;;;;;;;;;;6339407;22;20006;-79
2022/07/28 15:14:46;;;;;;;5.80;5.20;;;;;;;;;;6339275;22;20003;-80
2022/07/28 15:17:11;;;;;;;6.00;5.50;;;;;;;;;;6340593;22;20009;-80
2022/07/28 15:19:37;;;;;;;6.07;5.50;;;;;;;;;;6340956;22;20030;-80
2022/07/28 15:22:04;;;;;;;6.93;5.53;;;;;;;;;;6341398;22;20003;-80
2022/07/28 15:24:31;;;;;;;6.55;5.57;;;;;;;;;;6341594;22;20003;-80
2022/07/28 15:26:58;;;;;;;6.50;6.00;;;;;;;;;;6341172;22;20347;-80
2022/07/28 15:29:23;;;;;;;6.85;6.10;;;;;;;;;;6340803;22;20406;-80
2022/07/28 15:31:49;;;;;;;7.85;6.95;;;;;;;;;;6340972;22;19999;-80
2022/07/28 15:34:14;;;;;;;7.90;6.43;;;;;;;;;;6340723;22;20422;-80
2022/07/28 15:36:40;;;;;;;9.50;6.50;;;;;;;;;;6340913;22;20414;-80
2022/07/28 15:39:07;;;;;;;7.25;6.55;;;;;;;;;;6341452;22;20003;-80
2022/07/28 15:41:34;;;;;;;7.85;6.70;;;;;;;;;;6341360;22;20295;-81
2022/07/28 15:43:59;;;;;;;8.27;6.90;;;;;;;;;;6343887;22;20007;-80
2022/07/28 15:46:25;;;;;;;7.65;6.15;;;;;;;;;;6340934;22;20014;-79
2022/07/28 15:48:53;;;;;;;7.97;6.70;;;;;;;;;;6343885;22;20006;-80
2022/07/28 15:51:20;;;;;;;6.95;6.25;;;;;;;;;;6341163;22;20049;-81
2022/07/28 15:53:51;;;;;;;6.68;6.00;;;;;;;;;;6343806;22;20060;-80
2022/07/28 15:56:16;;;;;;;6.63;6.03;;;;;;;;;;6340603;22;20010;-79
2022/07/28 15:58:42;;;;;;;6.10;5.63;;;;;;;;;;6340704;22;20002;-80
2022/07/28 16:01:08;;;;;;;7.15;6.30;;;;;;;;;;6340578;22;20070;-79
2022/07/28 16:03:33;;;;;;;6.88;5.78;;;;;;;;;;6340685;22;20009;-80
2022/07/28 16:05:58;;;;;;;6.43;5.70;;;;;;;;;;6340559;22;20026;-81
2022/07/28 16:08:24;;;;;;;8.55;6.20;;;;;;;;;;6340795;22;20025;-79
2022/07/28 16:10:51;;;;;;;8.60;6.22;;;;;;;;;;6340349;22;20011;-80
2022/07/28 16:13:17;;;;;;;6.15;5.65;;;;;;;;;;6340391;22;20014;-81
2022/07/28 16:15:42;;;;;;;8.43;6.25;;;;;;;;;;6340476;22;20099;-80
2022/07/28 16:18:08;;;;;;;6.80;6.15;;;;;;;;;;6340699;22;20445;-79
2022/07/28 16:20:33;;;;;;;6.78;5.63;;;;;;;;;;6340589;22;19999;-79
2022/07/28 16:22:59;;;;;;;6.78;6.05;;;;;;;;;;6340467;22;20006;-81
2022/07/28 16:25:25;;;;;;;7.45;6.78;;;;;;;;;;6340278;22;20059;-79
2022/07/28 16:27:51;;;;;;;8.32;6.85;;;;;;;;;;6340096;22;20003;-82
2022/07/28 16:30:20;;;;;;;6.93;5.97;;;;;;;;;;6340468;22;20128;-82
2022/07/28 16:32:46;;;;;;;7.25;6.55;;;;;;;;;;6340122;22;20450;-82
2022/07/28 16:35:12;;;;;;;7.00;6.40;;;;;;;;;;6340369;22;20003;-81
2022/07/28 16:37:39;;;;;;;7.82;6.75;;;;;;;;;;6340425;22;20363;-80
2022/07/28 16:40:05;;;;;;;7.75;6.40;;;;;;;;;;6340156;22;20018;-82
2022/07/28 16:42:31;;;;;;;9.10;7.10;;;;;;;;;;6340163;22;20031;-81
2022/07/28 16:44:56;;;;;;;9.23;7.38;;;;;;;;;;6340139;22;20006;-79
2022/07/28 16:47:22;;;;;;;7.78;6.97;;;;;;;;;;6340464;22;20032;-79
2022/07/28 16:49:47;;;;;;;7.40;6.63;;;;;;;;;;6340157;22;19999;-81
2022/07/28 16:52:13;;;;;;;11.55;8.57;;;;;;;;;;6340133;22;19998;-80
2022/07/28 16:54:39;;;;;;;9.57;8.52;;;;;;;;;;6339924;22;20048;-81
2022/07/28 16:57:04;;;;;;;7.50;6.75;;;;;;;;;;6339997;22;20003;-82
2022/07/28 16:59:30;;;;;;;6.95;6.28;;;;;;;;;;6340440;22;20091;-83
2022/07/28 17:01:57;;;;;;;8.07;6.85;;;;;;;;;;6339943;22;20026;-83
2022/07/28 17:04:22;;;;;;;8.32;7.53;;;;;;;;;;6339930;22;20014;-85
2022/07/28 17:06:48;;;;;;;7.82;7.13;;;;;;;;;;6339701;22;20448;-86
2022/07/28 17:09:14;;;;;;;7.63;6.85;;;;;;;;;;6339665;22;20010;-85
2022/07/28 17:11:41;;;;;;;7.40;6.78;;;;;;;;;;6340110;22;20031;-83
2022/07/28 17:14:07;;;;;;;7.95;7.25;;;;;;;;;;6312172;22;19994;-83
2022/07/28 17:16:33;;;;;;;7.60;6.95;;;;;;;;;;6339872;22;20415;-83
2022/07/28 17:18:58;;;;;;;7.95;6.93;;;;;;;;;;6339943;22;20001;-83
2022/07/28 17:21:24;;;;;;;8.32;7.50;;;;;;;;;;6340312;22;20011;-86
2022/07/28 17:23:50;;;;;;;8.32;7.45;;;;;;;;;;6340086;22;20301;-87
2022/07/28 17:26:15;;;;;;;8.48;6.63;;;;;;;;;;6339904;22;20106;-84
2022/07/28 17:28:41;;;;;;;8.40;7.45;;;;;;;;;;6339736;22;20006;-85
2022/07/28 17:31:06;;;;;;;9.02;7.38;;;;;;;;;;6339370;22;20315;-86
2022/07/28 17:33:32;;;;;;;8.23;7.43;;;;;;;;;;6312335;22;20056;-87
2022/07/28 17:35:57;;;;;;;9.40;7.40;;;;;;;;;;6339626;22;19995;-86
2022/07/28 17:38:24;;;;;;;8.45;7.50;;;;;;;;;;6339784;22;20322;-86
2022/07/28 17:40:52;;;;;;;7.68;6.97;;;;;;;;;;6311760;22;20046;-87
2022/07/28 17:43:19;;;;;;;7.50;6.80;;;;;;;;;;6339641;22;20014;-86
2022/07/28 17:45:45;;;;;;;7.25;6.55;;;;;;;;;;6339479;22;20381;-79
2022/07/28 17:48:11;;;;;;;8.88;7.97;;;;;;;;;;6340209;22;20032;-85
2022/07/28 17:50:36;;;;;;;9.05;7.70;;;;;;;;;;6339911;22;19999;-85
2022/07/28 17:53:02;;;;;;;6.90;6.25;;;;;;;;;;6339751;22;20003;-83
2022/07/28 17:55:33;;;;;;;7.63;6.80;;;;;;;;;;6339632;22;20059;-83
2022/07/28 17:58:11;;;;;;;8.25;7.50;;;;;;;;;;6339937;22;20033;-89
2022/07/28 18:00:44;;;;;;;9.63;7.37;;;;;;;;;;6312746;22;20003;-87
2022/07/28 18:03:10;;;;;;;7.97;7.28;;;;;;;;;;6312838;22;20251;-87
2022/07/28 18:05:37;;;;;;;11.93;8.15;;;;;;;;;;6314304;22;20035;-89
2022/07/28 18:08:04;;;;;;;8.25;7.45;;;;;;;;;;6341250;22;20055;-88
2022/07/28 18:10:29;;;;;;;8.65;7.85;;;;;;;;;;6340105;22;20346;-85
2022/07/28 18:12:55;;;;;;;8.52;7.72;;;;;;;;;;6340065;22;20063;-87
2022/07/28 18:15:20;;;;;;;8.90;7.05;;;;;;;;;;6339734;22;19999;-86
2022/07/28 18:17:45;;;;;;;7.45;6.30;;;;;;;;;;6339575;22;20087;-86
2022/07/28 18:20:11;;;;;;;8.27;7.28;;;;;;;;;;6339364;22;20003;-85
2022/07/28 18:22:36;;;;;;;10.75;7.28;;;;;;;;;;6339420;22;20318;-86
2022/07/28 18:25:02;;;;;;;8.98;6.88;;;;;;;;;;6339359;22;20003;-86
2022/07/28 18:27:27;;;;;;;8.00;7.20;;;;;;;;;;6339893;22;19999;-86
2022/07/28 18:29:53;;;;;;;7.28;6.68;;;;;;;;;;6339499;22;20042;-86
2022/07/28 18:32:18;;;;;;;8.02;7.10;;;;;;;;;;6311891;22;20089;-87
2022/07/28 18:34:44;;;;;;;7.68;6.97;;;;;;;;;;6339508;22;20132;-86
2022/07/28 18:37:13;;;;;;;9.50;7.30;;;;;;;;;;6312283;22;20056;-87
2022/07/28 18:39:39;;;;;;;8.32;7.55;;;;;;;;;;6339141;22;20003;-88
2022/07/28 18:42:05;;;;;;;7.82;7.10;;;;;;;;;;6339460;22;20025;-87
2022/07/28 18:44:30;;;;;;;7.82;7.13;;;;;;;;;;6339541;22;20002;-86
2022/07/28 18:47:00;;;;;;;7.88;7.07;;;;;;;;;;6339319;22;20385;-87
2022/07/28 18:49:25;;;;;;;10.35;9.35;;;;;;;;;;6339489;22;20002;-86
2022/07/28 18:51:52;;;;;;;11.05;9.95;;;;;;;;;;6340430;22;20086;-86
2022/07/28 18:54:18;;;;;;;9.20;8.23;;;;;;;;;;6341308;22;20379;-86
2022/07/28 18:56:43;;;;;;;8.77;7.95;;;;;;;;;;6341545;22;19999;-86
2022/07/28 18:59:08;;;;;;;8.38;7.57;;;;;;;;;;6341297;22;20030;-86
2022/07/28 19:01:34;;;;;;;8.45;7.65;;;;;;;;;;6340830;22;20042;-85
2022/07/28 19:04:00;;;;;;;7.93;7.32;;;;;;;;;;6341259;22;20386;-86
2022/07/28 19:06:25;;;;;;;7.82;7.13;;;;;;;;;;6341125;22;20002;-84
2022/07/28 19:08:50;;;;;;;8.00;7.30;;;;;;;;;;6340890;22;20022;-84
2022/07/28 19:11:17;;;;;;;8.40;7.60;;;;;;;;;;6313499;22;20003;-85
2022/07/28 19:13:42;;;;;;;7.72;6.93;;;;;;;;;;6340910;22;19998;-84
2022/07/28 19:16:08;;;;;;;8.23;7.45;;;;;;;;;;6339756;22;19999;-84
2022/07/28 19:18:33;;;;;;;8.20;7.38;;;;;;;;;;6341027;22;20044;-84
2022/07/28 19:20:58;;;;;;;8.05;7.25;;;;;;;;;;6340685;22;20007;-84
2022/07/28 19:23:24;;;;;;;7.50;6.85;;;;;;;;;;6340583;22;20433;-82
2022/07/28 19:25:49;;;;;;;8.40;7.20;;;;;;;;;;6340667;22;20003;-82
2022/07/28 19:28:15;;;;;;;7.50;6.85;;;;;;;;;;6340691;22;20137;-83
2022/07/28 19:30:41;;;;;;;8.35;7.55;;;;;;;;;;6340779;22;20027;-83
2022/07/28 19:33:06;;;;;;;10.63;7.55;;;;;;;;;;6340460;22;20080;-81
2022/07/28 19:35:33;;;;;;;10.30;7.65;;;;;;;;;;6340713;22;20422;-85
2022/07/28 19:38:00;;;;;;;8.50;7.32;;;;;;;;;;6340659;22;20003;-85
2022/07/28 19:40:28;;;;;;;7.80;7.10;;;;;;;;;;6313207;22;20005;-85
2022/07/28 19:42:53;;;;;;;8.18;7.13;;;;;;;;;;6340865;22;20002;-85
2022/07/28 19:45:19;;;;;;;8.30;7.03;;;;;;;;;;6340493;22;20418;-84
2022/07/28 19:47:44;;;;;;;8.57;7.70;;;;;;;;;;6341022;22;20498;-85
2022/07/28 19:50:09;;;;;;;10.60;7.45;;;;;;;;;;6340692;22;20079;-85
2022/07/28 19:52:35;;;;;;;8.15;6.80;;;;;;;;;;6313035;22;20003;-85
2022/07/28 19:55:00;;;;;;;7.85;7.15;;;;;;;;;;6340674;22;20018;-85
2022/07/28 19:57:26;;;;;;;7.88;7.18;;;;;;;;;;6341049;22;20013;-85
2022/07/28 19:59:51;;;;;;;8.20;6.95;;;;;;;;;;6340649;22;20002;-84
2022/07/28 20:02:17;;;;;;;7.95;7.15;;;;;;;;;;6340666;22;20073;-84
2022/07/28 20:04:42;;;;;;;7.85;7.15;;;;;;;;;;6340609;22;20482;-84
2022/07/28 20:07:08;;;;;;;7.40;6.68;;;;;;;;;;6340623;22;20026;-84
2022/07/28 20:09:33;;;;;;;7.50;6.90;;;;;;;;;;6341873;22;20326;-85
2022/07/28 20:11:58;;;;;;;7.70;7.00;;;;;;;;;;6342227;22;20451;-85
2022/07/28 20:14:24;;;;;;;8.68;7.25;;;;;;;;;;6313893;22;20007;-85
2022/07/28 20:16:50;;;;;;;7.65;6.93;;;;;;;;;;6340642;22;19999;-85
2022/07/28 20:19:15;;;;;;;7.22;6.55;;;;;;;;;;6313344;22;20011;-85
2022/07/28 20:21:41;;;;;;;7.38;6.63;;;;;;;;;;6340683;22;20007;-84
2022/07/28 20:24:06;;;;;;;9.63;7.10;;;;;;;;;;6340231;22;20002;-85
2022/07/28 20:26:32;;;;;;;7.65;6.95;;;;;;;;;;6340271;22;20010;-85
2022/07/28 20:28:57;;;;;;;8.82;7.45;;;;;;;;;;6340179;22;20322;-85
2022/07/28 20:31:23;;;;;;;7.78;7.00;;;;;;;;;;6340351;22;20030;-85
2022/07/28 20:33:49;;;;;;;7.50;6.75;;;;;;;;;;6340382;22;20006;-85
2022/07/28 20:36:15;;;;;;;7.97;7.15;;;;;;;;;;6340192;22;20007;-89
2022/07/28 20:38:40;;;;;;;7.60;7.00;;;;;;;;;;6341874;22;20325;-84
2022/07/28 20:41:06;;;;;;;7.53;6.78;;;;;;;;;;6340749;22;20425;-84
2022/07/28 20:43:35;;;;;;;8.43;7.70;;;;;;;;;;6312701;22;20014;-84
2022/07/28 20:46:00;;;;;;;11.30;6.93;;;;;;;;;;6340488;22;20448;-84
2022/07/28 20:48:26;;;;;;;7.53;6.82;;;;;;;;;;6313049;22;19999;-84
2022/07/28 20:50:51;;;;;;;10.95;7.68;;;;;;;;;;6340423;22;19999;-84
2022/07/28 20:53:16;;;;;;;7.75;7.07;;;;;;;;;;6312661;22;20007;-84
2022/07/28 20:55:42;;;;;;;7.80;7.00;;;;;;;;;;6340681;22;19999;-84
2022/07/28 20:58:07;;;;;;;7.68;6.95;;;;;;;;;;6340845;22;20052;-84
2022/07/28 21:00:33;;;;;;;8.13;7.32;;;;;;;;;;6340295;22;19995;-84
2022/07/28 21:02:58;;;;;;;7.28;6.57;;;;;;;;;;6340080;22;20002;-85
2022/07/28 21:05:24;;;;;;;7.53;6.78;;;;;;;;;;6340280;22;20002;-84
2022/07/28 21:07:49;;;;;;;10.35;7.78;;;;;;;;;;6340400;22;20303;-85
2022/07/28 21:10:15;;;;;;;8.30;7.50;;;;;;;;;;6339947;22;20015;-84
2022/07/28 21:12:41;;;;;;;8.00;6.82;;;;;;;;;;6339933;22;19999;-84
2022/07/28 21:15:08;;;;;;;7.50;6.80;;;;;;;;;;6340044;22;20330;-85
2022/07/28 21:17:34;;;;;;;8.27;7.57;;;;;;;;;;6340187;22;20003;-84
2022/07/28 21:19:59;;;;;;;8.45;7.72;;;;;;;;;;6340033;22;20002;-84
2022/07/28 21:22:25;;;;;;;7.82;7.20;;;;;;;;;;6340004;22;19999;-85
2022/07/28 21:24:53;;;;;;;8.18;7.43;;;;;;;;;;6340448;22;20003;-84
2022/07/28 21:27:19;;;;;;;7.90;7.23;;;;;;;;;;6312592;22;20037;-85
2022/07/28 21:29:44;;;;;;;9.10;7.30;;;;;;;;;;6312341;22;20011;-85
2022/07/28 21:32:10;;;;;;;8.32;7.53;;;;;;;;;;6340061;22;20026;-84
2022/07/28 21:34:36;;;;;;;8.43;7.70;;;;;;;;;;6340019;22;20033;-85
2022/07/28 21:37:03;;;;;;;8.15;6.95;;;;;;;;;;6312132;22;20436;-84
2022/07/28 21:39:29;;;;;;;8.02;7.25;;;;;;;;;;6340057;22;20006;-85
2022/07/28 21:41:55;;;;;;;8.70;7.90;;;;;;;;;;6312311;22;20391;-84
2022/07/28 21:44:20;;;;;;;8.07;7.32;;;;;;;;;;6340743;22;20433;-85
2022/07/28 21:46:45;;;;;;;11.30;8.23;;;;;;;;;;6340387;22;20003;-85
2022/07/28 21:49:11;;;;;;;9.13;7.97;;;;;;;;;;6340482;22;20084;-87
2022/07/28 21:51:37;;;;;;;9.55;8.55;;;;;;;;;;6339885;22;20064;-84
2022/07/28 21:54:03;;;;;;;10.55;7.78;;;;;;;;;;6340331;22;20081;-84
2022/07/28 21:56:30;;;;;;;11.57;7.05;;;;;;;;;;6339861;22;20082;-85
2022/07/28 21:58:55;;;;;;;8.82;7.68;;;;;;;;;;6339849;22;20009;-80
2022/07/28 22:01:22;;;;;;;7.07;3.53;;;;;;;;;;6339752;22;20002;-79
2022/07/28 22:03:48;;;;;;;7.15;4.50;;;;;;;;;;6339788;22;20042;-80
